Terminal Aerodrome Forecast
Issued by NWS

Home | Current Version | Previous Version | Text Only | Print | Product List | Glossary On
Versions: 1 2 3 4 5 6 7 8 9 10 11 12 13 14 15 16 17 18
000
FTAK31 PAFA 281133
TAFAMC
TAF
PAMC 281133Z 2812/2912 VRB03KT P6SM VCSH FEW045 SCT070 OVC090
     FM282000 20008KT P6SM -SHRA SCT025 BKN050 OVC100
     FM290400 16005KT P6SM -SHRA OVC025=

USA.gov is the U.S. government's official web portal to all federal, state and local government web resources and services.